sensor_id;sensor_type;location;lat;lon;timestamp;P1;durP1;ratioP1;P2;durP2;ratioP2
8199;SDS011;4141;47.880;12.340;2022-09-21T00:01:37;9.13;;;2.80;;
8199;SDS011;4141;47.880;12.340;2022-09-21T00:04:05;5.43;;;2.77;;
8199;SDS011;4141;47.880;12.340;2022-09-21T00:06:34;5.70;;;2.50;;
8199;SDS011;4141;47.880;12.340;2022-09-21T00:09:02;4.90;;;2.30;;
8199;SDS011;4141;47.880;12.340;2022-09-21T00:11:31;5.77;;;2.30;;
8199;SDS011;4141;47.880;12.340;2022-09-21T00:14:01;14.70;;;2.90;;
8199;SDS011;4141;47.880;12.340;2022-09-21T00:16:32;7.70;;;3.90;;
8199;SDS011;4141;47.880;12.340;2022-09-21T00:19:02;11.33;;;3.83;;
8199;SDS011;4141;47.880;12.340;2022-09-21T00:21:40;6.97;;;3.93;;
8199;SDS011;4141;47.880;12.340;2022-09-21T00:24:09;8.53;;;2.27;;
8199;SDS011;4141;47.880;12.340;2022-09-21T00:26:37;5.43;;;2.50;;
8199;SDS011;4141;47.880;12.340;2022-09-21T00:29:05;5.30;;;3.00;;
8199;SDS011;4141;47.880;12.340;2022-09-21T00:31:33;6.00;;;2.57;;
8199;SDS011;4141;47.880;12.340;2022-09-21T00:34:03;5.70;;;2.77;;
8199;SDS011;4141;47.880;12.340;2022-09-21T00:36:33;7.90;;;2.80;;
8199;SDS011;4141;47.880;12.340;2022-09-21T00:39:01;4.70;;;2.43;;
8199;SDS011;4141;47.880;12.340;2022-09-21T00:41:31;8.10;;;3.07;;
8199;SDS011;4141;47.880;12.340;2022-09-21T00:46:50;4.97;;;2.73;;
8199;SDS011;4141;47.880;12.340;2022-09-21T00:49:22;7.00;;;2.77;;
8199;SDS011;4141;47.880;12.340;2022-09-21T00:51:51;3.80;;;2.30;;
8199;SDS011;4141;47.880;12.340;2022-09-21T00:54:20;5.20;;;2.40;;
8199;SDS011;4141;47.880;12.340;2022-09-21T00:56:50;5.17;;;2.13;;
8199;SDS011;4141;47.880;12.340;2022-09-21T00:59:18;3.93;;;2.40;;
8199;SDS011;4141;47.880;12.340;2022-09-21T01:01:48;4.63;;;2.13;;
8199;SDS011;4141;47.880;12.340;2022-09-21T01:04:17;3.67;;;2.73;;
8199;SDS011;4141;47.880;12.340;2022-09-21T01:06:47;4.60;;;2.80;;
8199;SDS011;4141;47.880;12.340;2022-09-21T01:09:15;4.10;;;2.60;;
8199;SDS011;4141;47.880;12.340;2022-09-21T01:11:46;3.70;;;2.20;;
8199;SDS011;4141;47.880;12.340;2022-09-21T01:14:35;10.70;;;2.20;;
8199;SDS011;4141;47.880;12.340;2022-09-21T01:17:12;2.93;;;1.83;;
8199;SDS011;4141;47.880;12.340;2022-09-21T01:19:46;3.77;;;2.03;;
8199;SDS011;4141;47.880;12.340;2022-09-21T01:22:28;4.17;;;2.40;;
8199;SDS011;4141;47.880;12.340;2022-09-21T01:25:04;11.60;;;2.03;;
8199;SDS011;4141;47.880;12.340;2022-09-21T01:27:42;2.97;;;2.03;;
8199;SDS011;4141;47.880;12.340;2022-09-21T01:30:17;4.90;;;1.97;;
8199;SDS011;4141;47.880;12.340;2022-09-21T01:32:47;3.93;;;1.73;;
8199;SDS011;4141;47.880;12.340;2022-09-21T01:35:19;14.77;;;2.17;;
8199;SDS011;4141;47.880;12.340;2022-09-21T01:37:50;7.43;;;2.90;;
8199;SDS011;4141;47.880;12.340;2022-09-21T01:40:21;3.10;;;1.73;;
8199;SDS011;4141;47.880;12.340;2022-09-21T01:43:01;5.13;;;2.53;;
8199;SDS011;4141;47.880;12.340;2022-09-21T01:45:33;9.93;;;2.07;;
8199;SDS011;4141;47.880;12.340;2022-09-21T01:48:02;3.53;;;1.90;;
8199;SDS011;4141;47.880;12.340;2022-09-21T01:50:33;5.43;;;2.63;;
8199;SDS011;4141;47.880;12.340;2022-09-21T01:53:04;4.20;;;2.30;;
8199;SDS011;4141;47.880;12.340;2022-09-21T01:55:40;3.00;;;2.10;;
8199;SDS011;4141;47.880;12.340;2022-09-21T01:58:21;3.80;;;2.47;;
8199;SDS011;4141;47.880;12.340;2022-09-21T02:00:54;8.07;;;2.47;;
8199;SDS011;4141;47.880;12.340;2022-09-21T02:03:25;4.63;;;2.10;;
8199;SDS011;4141;47.880;12.340;2022-09-21T02:05:56;5.00;;;2.77;;
8199;SDS011;4141;47.880;12.340;2022-09-21T02:08:25;5.40;;;2.43;;
8199;SDS011;4141;47.880;12.340;2022-09-21T02:10:53;8.63;;;2.30;;
8199;SDS011;4141;47.880;12.340;2022-09-21T02:13:21;5.83;;;2.77;;
8199;SDS011;4141;47.880;12.340;2022-09-21T02:15:59;4.30;;;2.90;;
8199;SDS011;4141;47.880;12.340;2022-09-21T02:18:34;6.07;;;2.73;;
8199;SDS011;4141;47.880;12.340;2022-09-21T02:21:12;3.43;;;2.30;;
8199;SDS011;4141;47.880;12.340;2022-09-21T02:23:47;8.70;;;2.37;;
8199;SDS011;4141;47.880;12.340;2022-09-21T02:26:21;3.13;;;2.07;;
8199;SDS011;4141;47.880;12.340;2022-09-21T02:28:52;3.80;;;2.30;;
8199;SDS011;4141;47.880;12.340;2022-09-21T02:31:29;4.00;;;2.50;;
8199;SDS011;4141;47.880;12.340;2022-09-21T02:34:02;9.50;;;3.27;;
8199;SDS011;4141;47.880;12.340;2022-09-21T02:36:35;6.30;;;2.80;;
8199;SDS011;4141;47.880;12.340;2022-09-21T02:39:09;4.20;;;2.00;;
8199;SDS011;4141;47.880;12.340;2022-09-21T02:41:39;3.47;;;2.10;;
8199;SDS011;4141;47.880;12.340;2022-09-21T02:44:13;6.50;;;3.10;;
8199;SDS011;4141;47.880;12.340;2022-09-21T02:46:44;2.90;;;1.90;;
8199;SDS011;4141;47.880;12.340;2022-09-21T02:49:15;6.23;;;1.60;;
8199;SDS011;4141;47.880;12.340;2022-09-21T02:51:46;5.43;;;2.10;;
8199;SDS011;4141;47.880;12.340;2022-09-21T02:54:17;3.60;;;2.40;;
8199;SDS011;4141;47.880;12.340;2022-09-21T02:56:47;4.03;;;2.40;;
8199;SDS011;4141;47.880;12.340;2022-09-21T02:59:17;7.77;;;2.37;;
8199;SDS011;4141;47.880;12.340;2022-09-21T03:01:50;3.90;;;2.17;;
8199;SDS011;4141;47.880;12.340;2022-09-21T03:04:18;8.93;;;2.63;;
8199;SDS011;4141;47.880;12.340;2022-09-21T03:06:46;5.30;;;2.53;;
8199;SDS011;4141;47.880;12.340;2022-09-21T03:09:15;4.23;;;2.50;;
8199;SDS011;4141;47.880;12.340;2022-09-21T03:11:42;5.43;;;2.73;;
8199;SDS011;4141;47.880;12.340;2022-09-21T03:14:11;2.60;;;1.90;;
8199;SDS011;4141;47.880;12.340;2022-09-21T03:16:39;4.90;;;2.30;;
8199;SDS011;4141;47.880;12.340;2022-09-21T03:19:09;3.23;;;2.00;;
8199;SDS011;4141;47.880;12.340;2022-09-21T03:21:38;4.33;;;2.80;;
8199;SDS011;4141;47.880;12.340;2022-09-21T03:24:10;9.80;;;2.20;;
8199;SDS011;4141;47.880;12.340;2022-09-21T03:26:38;12.10;;;3.70;;
8199;SDS011;4141;47.880;12.340;2022-09-21T03:32:14;6.33;;;2.90;;
8199;SDS011;4141;47.880;12.340;2022-09-21T03:34:44;4.00;;;2.80;;
8199;SDS011;4141;47.880;12.340;2022-09-21T03:37:12;5.27;;;3.40;;
8199;SDS011;4141;47.880;12.340;2022-09-21T03:39:40;6.57;;;2.80;;
8199;SDS011;4141;47.880;12.340;2022-09-21T03:42:08;9.30;;;3.47;;
8199;SDS011;4141;47.880;12.340;2022-09-21T03:44:37;7.53;;;3.07;;
8199;SDS011;4141;47.880;12.340;2022-09-21T03:47:06;8.40;;;3.30;;
8199;SDS011;4141;47.880;12.340;2022-09-21T03:49:34;3.30;;;2.70;;
8199;SDS011;4141;47.880;12.340;2022-09-21T03:52:05;10.27;;;3.17;;
8199;SDS011;4141;47.880;12.340;2022-09-21T03:54:33;8.63;;;3.10;;
8199;SDS011;4141;47.880;12.340;2022-09-21T03:57:01;5.77;;;3.43;;
8199;SDS011;4141;47.880;12.340;2022-09-21T03:59:29;7.13;;;5.50;;
8199;SDS011;4141;47.880;12.340;2022-09-21T04:01:57;12.00;;;9.07;;
8199;SDS011;4141;47.880;12.340;2022-09-21T04:04:25;10.30;;;6.43;;
8199;SDS011;4141;47.880;12.340;2022-09-21T04:06:53;14.63;;;9.20;;
8199;SDS011;4141;47.880;12.340;2022-09-21T04:09:23;10.67;;;6.63;;
8199;SDS011;4141;47.880;12.340;2022-09-21T04:11:51;7.60;;;4.80;;
8199;SDS011;4141;47.880;12.340;2022-09-21T04:14:19;8.77;;;5.43;;
8199;SDS011;4141;47.880;12.340;2022-09-21T04:16:48;7.03;;;3.60;;
8199;SDS011;4141;47.880;12.340;2022-09-21T04:19:17;4.67;;;3.30;;
8199;SDS011;4141;47.880;12.340;2022-09-21T04:21:48;5.70;;;2.43;;
8199;SDS011;4141;47.880;12.340;2022-09-21T04:24:18;7.03;;;2.90;;
8199;SDS011;4141;47.880;12.340;2022-09-21T04:26:47;5.50;;;3.13;;
8199;SDS011;4141;47.880;12.340;2022-09-21T04:29:15;7.70;;;3.50;;
8199;SDS011;4141;47.880;12.340;2022-09-21T04:31:43;4.83;;;2.73;;
8199;SDS011;4141;47.880;12.340;2022-09-21T04:34:12;3.80;;;2.60;;
8199;SDS011;4141;47.880;12.340;2022-09-21T04:36:40;6.30;;;3.63;;
8199;SDS011;4141;47.880;12.340;2022-09-21T04:39:09;10.83;;;4.30;;
8199;SDS011;4141;47.880;12.340;2022-09-21T04:41:37;5.70;;;3.67;;
8199;SDS011;4141;47.880;12.340;2022-09-21T04:44:06;7.60;;;3.57;;
8199;SDS011;4141;47.880;12.340;2022-09-21T04:46:34;12.37;;;3.70;;
8199;SDS011;4141;47.880;12.340;2022-09-21T04:49:03;6.40;;;3.93;;
8199;SDS011;4141;47.880;12.340;2022-09-21T04:51:31;11.97;;;4.43;;
8199;SDS011;4141;47.880;12.340;2022-09-21T04:53:59;10.87;;;4.50;;
8199;SDS011;4141;47.880;12.340;2022-09-21T04:56:28;9.60;;;6.10;;
8199;SDS011;4141;47.880;12.340;2022-09-21T04:58:56;10.10;;;5.30;;
8199;SDS011;4141;47.880;12.340;2022-09-21T05:01:25;16.17;;;5.70;;
8199;SDS011;4141;47.880;12.340;2022-09-21T05:03:54;8.00;;;4.00;;
8199;SDS011;4141;47.880;12.340;2022-09-21T05:06:24;4.47;;;3.27;;
8199;SDS011;4141;47.880;12.340;2022-09-21T05:08:52;6.40;;;3.50;;
8199;SDS011;4141;47.880;12.340;2022-09-21T05:11:38;4.67;;;3.10;;
8199;SDS011;4141;47.880;12.340;2022-09-21T05:14:06;5.10;;;3.13;;
8199;SDS011;4141;47.880;12.340;2022-09-21T05:16:36;3.80;;;3.17;;
8199;SDS011;4141;47.880;12.340;2022-09-21T05:19:04;8.03;;;4.57;;
8199;SDS011;4141;47.880;12.340;2022-09-21T05:21:33;12.70;;;4.15;;
8199;SDS011;4141;47.880;12.340;2022-09-21T05:24:05;7.60;;;3.60;;
8199;SDS011;4141;47.880;12.340;2022-09-21T05:26:33;3.70;;;2.60;;
8199;SDS011;4141;47.880;12.340;2022-09-21T05:29:01;3.40;;;2.37;;
8199;SDS011;4141;47.880;12.340;2022-09-21T05:31:37;4.35;;;2.40;;
8199;SDS011;4141;47.880;12.340;2022-09-21T05:34:12;3.00;;;1.70;;
8199;SDS011;4141;47.880;12.340;2022-09-21T05:37:04;4.30;;;2.50;;
8199;SDS011;4141;47.880;12.340;2022-09-21T05:39:34;6.30;;;3.63;;
8199;SDS011;4141;47.880;12.340;2022-09-21T05:42:03;5.13;;;2.43;;
8199;SDS011;4141;47.880;12.340;2022-09-21T05:44:32;7.73;;;2.00;;
8199;SDS011;4141;47.880;12.340;2022-09-21T05:47:03;5.87;;;2.67;;
8199;SDS011;4141;47.880;12.340;2022-09-21T05:49:37;6.27;;;2.37;;
8199;SDS011;4141;47.880;12.340;2022-09-21T05:52:13;7.17;;;4.80;;
8199;SDS011;4141;47.880;12.340;2022-09-21T05:54:46;11.27;;;5.90;;
8199;SDS011;4141;47.880;12.340;2022-09-21T05:57:21;6.63;;;4.10;;
8199;SDS011;4141;47.880;12.340;2022-09-21T05:59:59;3.53;;;1.90;;
8199;SDS011;4141;47.880;12.340;2022-09-21T06:02:40;8.00;;;3.30;;
8199;SDS011;4141;47.880;12.340;2022-09-21T06:05:15;3.90;;;2.30;;
8199;SDS011;4141;47.880;12.340;2022-09-21T06:07:44;2.87;;;1.90;;
8199;SDS011;4141;47.880;12.340;2022-09-21T06:10:12;2.90;;;2.03;;
8199;SDS011;4141;47.880;12.340;2022-09-21T06:12:41;3.77;;;2.13;;
8199;SDS011;4141;47.880;12.340;2022-09-21T06:15:10;2.60;;;1.80;;
8199;SDS011;4141;47.880;12.340;2022-09-21T06:17:41;6.50;;;1.97;;
8199;SDS011;4141;47.880;12.340;2022-09-21T06:20:09;3.10;;;1.20;;
8199;SDS011;4141;47.880;12.340;2022-09-21T06:22:37;3.70;;;1.63;;
8199;SDS011;4141;47.880;12.340;2022-09-21T06:25:06;2.60;;;1.43;;
8199;SDS011;4141;47.880;12.340;2022-09-21T06:27:35;2.93;;;1.30;;
8199;SDS011;4141;47.880;12.340;2022-09-21T06:30:04;2.13;;;1.20;;
8199;SDS011;4141;47.880;12.340;2022-09-21T06:32:32;4.30;;;2.23;;
8199;SDS011;4141;47.880;12.340;2022-09-21T06:35:02;4.30;;;1.83;;
8199;SDS011;4141;47.880;12.340;2022-09-21T06:37:30;6.33;;;2.03;;
8199;SDS011;4141;47.880;12.340;2022-09-21T06:39:59;7.10;;;2.30;;
8199;SDS011;4141;47.880;12.340;2022-09-21T06:42:27;4.90;;;1.57;;
8199;SDS011;4141;47.880;12.340;2022-09-21T06:44:55;4.83;;;1.80;;
8199;SDS011;4141;47.880;12.340;2022-09-21T06:47:23;3.90;;;1.30;;
8199;SDS011;4141;47.880;12.340;2022-09-21T06:49:51;5.27;;;1.50;;
8199;SDS011;4141;47.880;12.340;2022-09-21T06:52:21;3.90;;;1.80;;
8199;SDS011;4141;47.880;12.340;2022-09-21T06:54:49;6.60;;;1.10;;
8199;SDS011;4141;47.880;12.340;2022-09-21T06:57:17;2.77;;;1.00;;
8199;SDS011;4141;47.880;12.340;2022-09-21T06:59:45;4.53;;;1.70;;
8199;SDS011;4141;47.880;12.340;2022-09-21T07:02:13;7.57;;;1.93;;
8199;SDS011;4141;47.880;12.340;2022-09-21T07:04:42;2.80;;;1.20;;
8199;SDS011;4141;47.880;12.340;2022-09-21T07:07:10;3.37;;;1.47;;
8199;SDS011;4141;47.880;12.340;2022-09-21T07:09:40;4.20;;;1.23;;
8199;SDS011;4141;47.880;12.340;2022-09-21T07:12:28;4.80;;;2.03;;
8199;SDS011;4141;47.880;12.340;2022-09-21T07:14:57;3.60;;;2.00;;
8199;SDS011;4141;47.880;12.340;2022-09-21T07:17:29;3.80;;;1.77;;
8199;SDS011;4141;47.880;12.340;2022-09-21T07:19:58;4.20;;;1.70;;
8199;SDS011;4141;47.880;12.340;2022-09-21T07:22:27;3.20;;;1.60;;
8199;SDS011;4141;47.880;12.340;2022-09-21T07:24:57;2.40;;;1.20;;
8199;SDS011;4141;47.880;12.340;2022-09-21T07:27:26;3.80;;;1.57;;
8199;SDS011;4141;47.880;12.340;2022-09-21T07:29:56;2.50;;;1.10;;
8199;SDS011;4141;47.880;12.340;2022-09-21T07:32:24;3.53;;;1.40;;
8199;SDS011;4141;47.880;12.340;2022-09-21T07:34:52;2.10;;;1.50;;
8199;SDS011;4141;47.880;12.340;2022-09-21T07:37:22;2.50;;;1.10;;
8199;SDS011;4141;47.880;12.340;2022-09-21T07:39:50;3.90;;;1.57;;
8199;SDS011;4141;47.880;12.340;2022-09-21T07:42:20;2.80;;;1.60;;
8199;SDS011;4141;47.880;12.340;2022-09-21T07:44:51;2.60;;;1.20;;
8199;SDS011;4141;47.880;12.340;2022-09-21T07:47:29;3.20;;;2.00;;
8199;SDS011;4141;47.880;12.340;2022-09-21T07:49:57;3.17;;;2.00;;
8199;SDS011;4141;47.880;12.340;2022-09-21T07:52:26;3.83;;;1.60;;
8199;SDS011;4141;47.880;12.340;2022-09-21T07:54:54;5.03;;;1.70;;
8199;SDS011;4141;47.880;12.340;2022-09-21T07:57:23;2.07;;;1.40;;
8199;SDS011;4141;47.880;12.340;2022-09-21T08:00:09;1.93;;;1.17;;
8199;SDS011;4141;47.880;12.340;2022-09-21T08:02:38;4.73;;;1.70;;
8199;SDS011;4141;47.880;12.340;2022-09-21T08:05:13;2.63;;;2.00;;
8199;SDS011;4141;47.880;12.340;2022-09-21T08:07:41;3.80;;;1.60;;
8199;SDS011;4141;47.880;12.340;2022-09-21T08:10:09;3.97;;;1.50;;
8199;SDS011;4141;47.880;12.340;2022-09-21T08:12:39;2.83;;;1.73;;
8199;SDS011;4141;47.880;12.340;2022-09-21T08:15:09;3.43;;;1.80;;
8199;SDS011;4141;47.880;12.340;2022-09-21T08:17:58;3.30;;;1.73;;
8199;SDS011;4141;47.880;12.340;2022-09-21T08:20:27;7.10;;;2.13;;
8199;SDS011;4141;47.880;12.340;2022-09-21T08:22:55;3.50;;;1.50;;
8199;SDS011;4141;47.880;12.340;2022-09-21T08:25:26;3.17;;;1.83;;
8199;SDS011;4141;47.880;12.340;2022-09-21T08:28:00;4.10;;;1.27;;
8199;SDS011;4141;47.880;12.340;2022-09-21T08:30:35;2.60;;;1.10;;
8199;SDS011;4141;47.880;12.340;2022-09-21T08:33:03;6.90;;;2.43;;
8199;SDS011;4141;47.880;12.340;2022-09-21T08:35:32;2.80;;;1.93;;
8199;SDS011;4141;47.880;12.340;2022-09-21T08:38:01;3.20;;;1.50;;
8199;SDS011;4141;47.880;12.340;2022-09-21T08:40:29;3.97;;;2.00;;
8199;SDS011;4141;47.880;12.340;2022-09-21T08:42:58;5.83;;;1.77;;
8199;SDS011;4141;47.880;12.340;2022-09-21T08:45:31;2.27;;;1.27;;
8199;SDS011;4141;47.880;12.340;2022-09-21T08:48:01;6.23;;;1.73;;
8199;SDS011;4141;47.880;12.340;2022-09-21T08:50:33;4.20;;;1.60;;
8199;SDS011;4141;47.880;12.340;2022-09-21T08:53:05;3.33;;;1.80;;
8199;SDS011;4141;47.880;12.340;2022-09-21T08:55:35;7.00;;;1.73;;
8199;SDS011;4141;47.880;12.340;2022-09-21T08:58:07;2.40;;;1.20;;
8199;SDS011;4141;47.880;12.340;2022-09-21T09:00:47;6.57;;;1.60;;
8199;SDS011;4141;47.880;12.340;2022-09-21T09:06:08;1.60;;;0.90;;
8199;SDS011;4141;47.880;12.340;2022-09-21T09:08:44;2.83;;;1.20;;
8199;SDS011;4141;47.880;12.340;2022-09-21T09:14:17;4.80;;;1.30;;
8199;SDS011;4141;47.880;12.340;2022-09-21T09:16:57;4.40;;;1.00;;
8199;SDS011;4141;47.880;12.340;2022-09-21T09:19:37;3.00;;;1.17;;
8199;SDS011;4141;47.880;12.340;2022-09-21T09:22:09;8.07;;;1.27;;
8199;SDS011;4141;47.880;12.340;2022-09-21T09:24:40;3.20;;;1.10;;
8199;SDS011;4141;47.880;12.340;2022-09-21T09:27:14;3.53;;;1.30;;
8199;SDS011;4141;47.880;12.340;2022-09-21T09:29:49;3.13;;;1.13;;
8199;SDS011;4141;47.880;12.340;2022-09-21T09:32:30;4.53;;;0.83;;
8199;SDS011;4141;47.880;12.340;2022-09-21T09:35:06;3.90;;;1.20;;
8199;SDS011;4141;47.880;12.340;2022-09-21T09:37:43;1.80;;;0.90;;
8199;SDS011;4141;47.880;12.340;2022-09-21T09:40:12;3.20;;;1.00;;
8199;SDS011;4141;47.880;12.340;2022-09-21T09:42:45;4.00;;;1.17;;
8199;SDS011;4141;47.880;12.340;2022-09-21T09:45:23;2.47;;;1.07;;
8199;SDS011;4141;47.880;12.340;2022-09-21T09:48:04;1.63;;;0.50;;
8199;SDS011;4141;47.880;12.340;2022-09-21T09:50:36;3.97;;;0.90;;
8199;SDS011;4141;47.880;12.340;2022-09-21T09:53:08;4.03;;;0.80;;
8199;SDS011;4141;47.880;12.340;2022-09-21T09:55:39;6.50;;;0.73;;
8199;SDS011;4141;47.880;12.340;2022-09-21T09:58:15;2.50;;;0.73;;
8199;SDS011;4141;47.880;12.340;2022-09-21T10:00:49;2.20;;;1.10;;
8199;SDS011;4141;47.880;12.340;2022-09-21T10:03:20;4.77;;;0.90;;
8199;SDS011;4141;47.880;12.340;2022-09-21T10:05:50;3.27;;;0.70;;
8199;SDS011;4141;47.880;12.340;2022-09-21T10:08:28;1.83;;;0.80;;
8199;SDS011;4141;47.880;12.340;2022-09-21T10:11:01;3.30;;;0.73;;
8199;SDS011;4141;47.880;12.340;2022-09-21T10:13:32;1.80;;;0.60;;
8199;SDS011;4141;47.880;12.340;2022-09-21T10:16:05;2.70;;;0.50;;
8199;SDS011;4141;47.880;12.340;2022-09-21T10:18:42;3.00;;;0.70;;
8199;SDS011;4141;47.880;12.340;2022-09-21T10:21:16;1.53;;;0.60;;
8199;SDS011;4141;47.880;12.340;2022-09-21T10:23:47;1.87;;;0.50;;
8199;SDS011;4141;47.880;12.340;2022-09-21T10:26:18;3.60;;;0.70;;
8199;SDS011;4141;47.880;12.340;2022-09-21T10:28:56;2.07;;;0.70;;
8199;SDS011;4141;47.880;12.340;2022-09-21T10:31:27;2.07;;;0.53;;
8199;SDS011;4141;47.880;12.340;2022-09-21T10:34:06;1.60;;;0.50;;
8199;SDS011;4141;47.880;12.340;2022-09-21T10:36:41;1.67;;;0.50;;
8199;SDS011;4141;47.880;12.340;2022-09-21T10:39:21;2.23;;;0.60;;
8199;SDS011;4141;47.880;12.340;2022-09-21T10:41:51;1.40;;;0.60;;
8199;SDS011;4141;47.880;12.340;2022-09-21T10:44:24;1.53;;;0.63;;
8199;SDS011;4141;47.880;12.340;2022-09-21T10:46:55;2.93;;;0.70;;
8199;SDS011;4141;47.880;12.340;2022-09-21T10:49:25;2.90;;;1.30;;
8199;SDS011;4141;47.880;12.340;2022-09-21T10:51:55;1.63;;;0.60;;
8199;SDS011;4141;47.880;12.340;2022-09-21T10:54:25;1.37;;;0.57;;
8199;SDS011;4141;47.880;12.340;2022-09-21T10:56:57;1.60;;;0.70;;
8199;SDS011;4141;47.880;12.340;2022-09-21T10:59:27;1.83;;;0.70;;
8199;SDS011;4141;47.880;12.340;2022-09-21T11:01:59;2.47;;;0.80;;
8199;SDS011;4141;47.880;12.340;2022-09-21T11:04:38;2.60;;;0.80;;
8199;SDS011;4141;47.880;12.340;2022-09-21T11:07:13;1.73;;;1.00;;
8199;SDS011;4141;47.880;12.340;2022-09-21T11:09:46;2.10;;;0.60;;
8199;SDS011;4141;47.880;12.340;2022-09-21T11:12:34;1.60;;;0.60;;
8199;SDS011;4141;47.880;12.340;2022-09-21T11:15:11;3.17;;;0.77;;
8199;SDS011;4141;47.880;12.340;2022-09-21T11:17:47;2.17;;;0.90;;
8199;SDS011;4141;47.880;12.340;2022-09-21T11:20:20;5.63;;;1.57;;
8199;SDS011;4141;47.880;12.340;2022-09-21T11:22:54;8.53;;;1.20;;
8199;SDS011;4141;47.880;12.340;2022-09-21T11:25:30;2.03;;;0.80;;
8199;SDS011;4141;47.880;12.340;2022-09-21T11:28:04;3.10;;;0.80;;
8199;SDS011;4141;47.880;12.340;2022-09-21T11:30:46;4.13;;;0.80;;
8199;SDS011;4141;47.880;12.340;2022-09-21T11:33:30;3.20;;;0.73;;
8199;SDS011;4141;47.880;12.340;2022-09-21T11:36:05;4.97;;;1.13;;
8199;SDS011;4141;47.880;12.340;2022-09-21T11:38:44;3.93;;;1.00;;
8199;SDS011;4141;47.880;12.340;2022-09-21T11:41:22;2.67;;;0.80;;
8199;SDS011;4141;47.880;12.340;2022-09-21T11:44:12;3.97;;;0.70;;
8199;SDS011;4141;47.880;12.340;2022-09-21T11:46:58;3.17;;;0.80;;
8199;SDS011;4141;47.880;12.340;2022-09-21T11:49:44;3.03;;;0.70;;
8199;SDS011;4141;47.880;12.340;2022-09-21T11:52:42;1.10;;;0.50;;
8199;SDS011;4141;47.880;12.340;2022-09-21T11:55:21;1.30;;;0.40;;
8199;SDS011;4141;47.880;12.340;2022-09-21T11:58:00;1.93;;;1.00;;
8199;SDS011;4141;47.880;12.340;2022-09-21T12:00:39;1.93;;;0.77;;
8199;SDS011;4141;47.880;12.340;2022-09-21T12:03:26;4.37;;;0.63;;
8199;SDS011;4141;47.880;12.340;2022-09-21T12:06:15;2.10;;;0.70;;
8199;SDS011;4141;47.880;12.340;2022-09-21T12:09:02;1.03;;;0.50;;
8199;SDS011;4141;47.880;12.340;2022-09-21T12:11:48;2.07;;;0.70;;
8199;SDS011;4141;47.880;12.340;2022-09-21T12:14:19;3.00;;;0.73;;
8199;SDS011;4141;47.880;12.340;2022-09-21T12:16:53;1.20;;;0.60;;
8199;SDS011;4141;47.880;12.340;2022-09-21T12:19:26;1.10;;;0.50;;
8199;SDS011;4141;47.880;12.340;2022-09-21T12:22:01;2.00;;;0.70;;
8199;SDS011;4141;47.880;12.340;2022-09-21T12:24:32;1.77;;;0.60;;
8199;SDS011;4141;47.880;12.340;2022-09-21T12:27:05;1.37;;;0.50;;
8199;SDS011;4141;47.880;12.340;2022-09-21T12:29:37;2.17;;;0.60;;
8199;SDS011;4141;47.880;12.340;2022-09-21T12:32:11;1.53;;;0.53;;
8199;SDS011;4141;47.880;12.340;2022-09-21T12:34:45;2.27;;;0.70;;
8199;SDS011;4141;47.880;12.340;2022-09-21T12:37:18;1.73;;;0.60;;
8199;SDS011;4141;47.880;12.340;2022-09-21T12:39:50;2.80;;;0.60;;
8199;SDS011;4141;47.880;12.340;2022-09-21T12:42:24;2.53;;;0.77;;
8199;SDS011;4141;47.880;12.340;2022-09-21T12:44:55;1.83;;;1.20;;
8199;SDS011;4141;47.880;12.340;2022-09-21T12:47:28;1.67;;;0.57;;
8199;SDS011;4141;47.880;12.340;2022-09-21T12:50:13;1.20;;;0.57;;
8199;SDS011;4141;47.880;12.340;2022-09-21T12:52:47;3.57;;;0.80;;
8199;SDS011;4141;47.880;12.340;2022-09-21T12:55:20;1.53;;;0.50;;
8199;SDS011;4141;47.880;12.340;2022-09-21T12:57:55;1.20;;;0.60;;
8199;SDS011;4141;47.880;12.340;2022-09-21T13:00:43;1.90;;;0.50;;
8199;SDS011;4141;47.880;12.340;2022-09-21T13:03:15;1.50;;;0.60;;
8199;SDS011;4141;47.880;12.340;2022-09-21T13:05:49;1.90;;;1.00;;
8199;SDS011;4141;47.880;12.340;2022-09-21T13:08:34;1.50;;;0.67;;
8199;SDS011;4141;47.880;12.340;2022-09-21T13:11:04;1.93;;;0.50;;
8199;SDS011;4141;47.880;12.340;2022-09-21T13:13:35;5.30;;;0.77;;
8199;SDS011;4141;47.880;12.340;2022-09-21T13:16:05;3.30;;;1.00;;
8199;SDS011;4141;47.880;12.340;2022-09-21T13:18:34;1.10;;;0.40;;
8199;SDS011;4141;47.880;12.340;2022-09-21T13:21:16;3.07;;;0.53;;
8199;SDS011;4141;47.880;12.340;2022-09-21T13:23:51;1.73;;;0.50;;
8199;SDS011;4141;47.880;12.340;2022-09-21T13:26:29;2.93;;;1.20;;
8199;SDS011;4141;47.880;12.340;2022-09-21T13:29:04;2.13;;;0.73;;
8199;SDS011;4141;47.880;12.340;2022-09-21T13:31:52;1.40;;;0.67;;
8199;SDS011;4141;47.880;12.340;2022-09-21T13:34:30;1.30;;;0.90;;
8199;SDS011;4141;47.880;12.340;2022-09-21T13:46:48;1.57;;;0.57;;
8199;SDS011;4141;47.880;12.340;2022-09-21T13:52:07;5.90;;;0.80;;
8199;SDS011;4141;47.880;12.340;2022-09-21T13:54:52;2.93;;;0.60;;
8199;SDS011;4141;47.880;12.340;2022-09-21T13:57:23;2.00;;;0.70;;
8199;SDS011;4141;47.880;12.340;2022-09-21T14:00:02;2.10;;;0.63;;
8199;SDS011;4141;47.880;12.340;2022-09-21T14:02:35;3.50;;;0.90;;
8199;SDS011;4141;47.880;12.340;2022-09-21T14:05:06;1.10;;;0.50;;
8199;SDS011;4141;47.880;12.340;2022-09-21T14:07:36;1.43;;;0.53;;
8199;SDS011;4141;47.880;12.340;2022-09-21T14:10:16;1.93;;;0.67;;
8199;SDS011;4141;47.880;12.340;2022-09-21T14:12:45;3.40;;;0.67;;
8199;SDS011;4141;47.880;12.340;2022-09-21T14:21:10;1.50;;;0.70;;
8199;SDS011;4141;47.880;12.340;2022-09-21T14:26:44;2.70;;;0.90;;
8199;SDS011;4141;47.880;12.340;2022-09-21T14:29:16;3.03;;;1.67;;
8199;SDS011;4141;47.880;12.340;2022-09-21T14:31:47;4.07;;;1.40;;
8199;SDS011;4141;47.880;12.340;2022-09-21T14:34:18;1.30;;;0.57;;
8199;SDS011;4141;47.880;12.340;2022-09-21T14:36:51;1.63;;;0.63;;
8199;SDS011;4141;47.880;12.340;2022-09-21T14:39:23;2.80;;;0.60;;
8199;SDS011;4141;47.880;12.340;2022-09-21T14:41:55;3.23;;;0.67;;
8199;SDS011;4141;47.880;12.340;2022-09-21T14:44:26;1.57;;;0.73;;
8199;SDS011;4141;47.880;12.340;2022-09-21T14:50:00;3.33;;;0.50;;
8199;SDS011;4141;47.880;12.340;2022-09-21T14:52:43;2.40;;;0.60;;
8199;SDS011;4141;47.880;12.340;2022-09-21T14:55:19;2.67;;;0.50;;
8199;SDS011;4141;47.880;12.340;2022-09-21T14:57:58;1.60;;;0.60;;
8199;SDS011;4141;47.880;12.340;2022-09-21T15:00:35;7.00;;;0.97;;
8199;SDS011;4141;47.880;12.340;2022-09-21T15:06:14;3.90;;;1.50;;
8199;SDS011;4141;47.880;12.340;2022-09-21T15:09:09;1.17;;;0.80;;
8199;SDS011;4141;47.880;12.340;2022-09-21T15:12:09;3.40;;;1.50;;
8199;SDS011;4141;47.880;12.340;2022-09-21T15:14:41;2.73;;;1.63;;
8199;SDS011;4141;47.880;12.340;2022-09-21T15:17:21;2.57;;;1.27;;
8199;SDS011;4141;47.880;12.340;2022-09-21T15:19:51;1.47;;;0.90;;
8199;SDS011;4141;47.880;12.340;2022-09-21T15:22:26;3.70;;;1.20;;
8199;SDS011;4141;47.880;12.340;2022-09-21T15:24:54;3.20;;;1.10;;
8199;SDS011;4141;47.880;12.340;2022-09-21T15:27:25;2.20;;;0.90;;
8199;SDS011;4141;47.880;12.340;2022-09-21T15:30:00;2.87;;;1.30;;
8199;SDS011;4141;47.880;12.340;2022-09-21T15:32:33;1.83;;;1.00;;
8199;SDS011;4141;47.880;12.340;2022-09-21T15:35:04;3.70;;;1.20;;
8199;SDS011;4141;47.880;12.340;2022-09-21T15:37:35;2.77;;;1.70;;
8199;SDS011;4141;47.880;12.340;2022-09-21T15:40:06;2.27;;;1.33;;
8199;SDS011;4141;47.880;12.340;2022-09-21T15:42:56;3.10;;;1.77;;
8199;SDS011;4141;47.880;12.340;2022-09-21T15:45:29;5.40;;;1.30;;
8199;SDS011;4141;47.880;12.340;2022-09-21T15:48:00;3.73;;;1.30;;
8199;SDS011;4141;47.880;12.340;2022-09-21T15:50:29;1.83;;;1.10;;
8199;SDS011;4141;47.880;12.340;2022-09-21T15:53:00;5.27;;;1.57;;
8199;SDS011;4141;47.880;12.340;2022-09-21T15:55:31;4.30;;;1.30;;
8199;SDS011;4141;47.880;12.340;2022-09-21T15:57:59;5.43;;;1.53;;
8199;SDS011;4141;47.880;12.340;2022-09-21T16:00:29;5.60;;;1.57;;
8199;SDS011;4141;47.880;12.340;2022-09-21T16:03:03;4.43;;;1.40;;
8199;SDS011;4141;47.880;12.340;2022-09-21T16:05:41;3.37;;;1.77;;
8199;SDS011;4141;47.880;12.340;2022-09-21T16:08:20;1.43;;;1.10;;
8199;SDS011;4141;47.880;12.340;2022-09-21T16:11:09;3.67;;;1.50;;
8199;SDS011;4141;47.880;12.340;2022-09-21T16:13:42;2.47;;;1.03;;